Time;durP1;ratioP1;P1;durP2;ratioP2;P2;SDS_P1;SDS_P2;PMS_P1;PMS_P2;Temp;Humidity;BMP_temperature;BMP_pressure;BME280_temperature;BME280_humidity;BME280_pressure;Samples;Min_cycle;Max_cycle;Signal;HPM_P1;HPM_P2
2022/01/05 00:02:08;;;;;;;41.43;38.73;;;;;;;3.74;100.00;100841.73;2004600;71;32777;-73
2022/01/05 00:07:53;;;;;;;43.07;40.47;;;;;;;3.65;100.00;100835.77;2018191;71;32924;-77
2022/01/05 00:13:38;;;;;;;43.13;40.20;;;;;;;3.70;100.00;100838.33;2013310;71;32875;-76
2022/01/05 00:19:22;;;;;;;41.97;39.47;;;;;;;3.71;100.00;100844.13;2013237;71;32832;-76
2022/01/05 00:25:08;;;;;;;41.70;39.40;;;;;;;3.63;100.00;100853.05;2009934;71;33331;-76
2022/01/05 00:30:55;;;;;;;43.90;41.30;;;;;;;3.62;100.00;100859.60;2057098;69;33201;-80
2022/01/05 00:36:41;;;;;;;39.77;37.50;;;;;;;3.60;100.00;100864.48;2016903;71;33407;-81
2022/01/05 00:42:25;;;;;;;41.50;38.97;;;;;;;3.71;100.00;100864.73;2006351;71;32831;-76
2022/01/05 00:48:09;;;;;;;40.50;38.03;;;;;;;3.64;100.00;100859.34;2018392;71;32843;-75
2022/01/05 00:53:54;;;;;;;41.53;38.77;;;;;;;3.66;100.00;100862.16;2008157;71;33325;-76
2022/01/05 00:59:38;;;;;;;40.00;37.70;;;;;;;3.63;100.00;100870.05;2018454;71;32903;-74
2022/01/05 01:05:24;;;;;;;42.10;39.40;;;;;;;3.65;100.00;100857.74;1995212;71;32754;-77
2022/01/05 01:11:10;;;;;;;43.13;40.50;;;;;;;3.52;100.00;100870.34;1995210;71;32923;-76
2022/01/05 01:16:54;;;;;;;41.60;39.10;;;;;;;3.55;100.00;100870.42;2016776;71;32837;-77
2022/01/05 01:22:38;;;;;;;42.43;39.70;;;;;;;3.65;100.00;100872.00;2004493;71;32761;-77
2022/01/05 01:28:24;;;;;;;42.30;39.80;;;;;;;3.68;100.00;100882.51;2016770;71;32838;-77
2022/01/05 01:34:08;;;;;;;42.40;39.90;;;;;;;3.51;100.00;100890.63;2018895;71;32849;-76
2022/01/05 01:39:52;;;;;;;43.07;40.30;;;;;;;3.49;100.00;100887.83;2015008;71;32949;-75
2022/01/05 01:45:36;;;;;;;43.40;40.50;;;;;;;3.55;100.00;100897.31;2016810;71;32844;-76
2022/01/05 01:51:21;;;;;;;43.20;40.60;;;;;;;3.55;100.00;100912.41;2002700;71;32950;-75
2022/01/05 01:57:08;;;;;;;45.80;43.10;;;;;;;3.48;100.00;100924.06;2009571;71;32909;-75
2022/01/05 02:02:53;;;;;;;45.23;42.63;;;;;;;3.39;100.00;100915.87;2009164;71;33420;-75
2022/01/05 02:08:38;;;;;;;46.13;43.17;;;;;;;3.39;100.00;100921.89;1995268;71;33315;-74
2022/01/05 02:14:24;;;;;;;44.43;42.00;;;;;;;3.47;100.00;100933.36;2016486;71;32958;-75
2022/01/05 02:20:18;;;;;;;44.10;41.43;;;;;;;3.46;100.00;100943.23;1998884;71;32787;-74
2022/01/05 02:25:54;;;;;;;45.30;42.37;;;;;;;3.38;100.00;100927.91;1870298;76;33118;-74
2022/01/05 02:28:25;;;;;;;45.30;42.90;;;;;;;3.37;100.00;100933.13;1844723;77;26358;-74
2022/01/05 02:30:56;;;;;;;44.27;41.30;;;;;;;3.34;100.00;100936.89;1851178;77;26420;-74
2022/01/05 02:33:27;;;;;;;46.90;44.00;;;;;;;3.30;100.00;100946.63;1853025;77;26257;-76
2022/01/05 02:35:58;;;;;;;44.93;42.10;;;;;;;3.33;100.00;100949.77;1853138;77;26241;-75
2022/01/05 02:38:28;;;;;;;44.60;42.17;;;;;;;3.35;100.00;100946.23;1853206;77;26814;-76
2022/01/05 02:40:59;;;;;;;43.87;41.27;;;;;;;3.43;100.00;100939.56;1853181;77;26376;-75
2022/01/05 02:43:29;;;;;;;43.17;40.67;;;;;;;3.50;100.00;100948.02;1844460;77;26415;-74
2022/01/05 02:46:00;;;;;;;46.70;43.87;;;;;;;3.50;100.00;100948.55;1844822;78;26296;-74
2022/01/05 02:48:32;;;;;;;44.63;42.10;;;;;;;3.45;100.00;100952.00;1844727;78;26316;-72
2022/01/05 02:51:03;;;;;;;44.53;41.83;;;;;;;3.43;100.00;100953.29;1844860;78;26342;-74
2022/01/05 02:53:34;;;;;;;43.90;41.30;;;;;;;3.45;100.00;100949.25;1844746;78;26679;-75
2022/01/05 02:56:04;;;;;;;44.33;41.73;;;;;;;3.49;100.00;100951.83;1844686;78;26315;-74
2022/01/05 02:58:34;;;;;;;45.37;42.60;;;;;;;3.46;100.00;100933.62;1844743;78;26299;-75
2022/01/05 03:01:06;;;;;;;42.50;40.03;;;;;;;3.48;100.00;100938.32;1844701;78;26250;-75
2022/01/05 03:03:36;;;;;;;44.20;41.20;;;;;;;3.47;100.00;100938.02;1844652;78;26234;-75
2022/01/05 03:06:07;;;;;;;43.83;41.20;;;;;;;3.57;100.00;100939.66;1844700;78;26252;-75
2022/01/05 03:08:37;;;;;;;44.90;41.87;;;;;;;3.62;100.00;100948.02;1844717;78;26290;-74
2022/01/05 03:11:07;;;;;;;44.17;41.43;;;;;;;3.61;100.00;100952.67;1844872;78;26221;-75
2022/01/05 03:13:37;;;;;;;42.63;40.17;;;;;;;3.63;100.00;100950.55;1844668;78;26343;-73
2022/01/05 03:16:08;;;;;;;43.80;41.10;;;;;;;3.60;100.00;100956.48;1844809;78;26734;-75
2022/01/05 03:18:39;;;;;;;42.60;40.03;;;;;;;3.64;100.00;100955.47;1844797;78;26241;-74
2022/01/05 03:21:09;;;;;;;43.20;40.43;;;;;;;3.70;100.00;100958.66;1844640;78;26681;-75
2022/01/05 03:23:39;;;;;;;44.17;41.53;;;;;;;3.68;100.00;100958.61;1844758;78;26205;-76
2022/01/05 03:26:09;;;;;;;42.87;40.37;;;;;;;3.74;100.00;100965.87;1844676;77;26723;-74
2022/01/05 03:28:39;;;;;;;42.80;39.97;;;;;;;3.74;100.00;100965.87;1844832;78;26754;-75
2022/01/05 03:31:09;;;;;;;43.23;40.63;;;;;;;3.71;100.00;100963.62;1844721;78;26235;-74
2022/01/05 03:33:39;;;;;;;43.17;40.57;;;;;;;3.66;100.00;100966.55;1844730;78;26720;-76
2022/01/05 03:36:10;;;;;;;42.70;40.03;;;;;;;3.59;100.00;100960.30;1844404;78;26217;-75
2022/01/05 03:38:40;;;;;;;43.37;40.67;;;;;;;3.61;100.00;100958.17;1844172;78;26193;-75
2022/01/05 03:41:10;;;;;;;42.93;40.03;;;;;;;3.61;100.00;100962.82;1844049;78;26280;-74
2022/01/05 03:43:40;;;;;;;44.20;41.20;;;;;;;3.64;100.00;100965.09;1844089;78;26209;-75
2022/01/05 03:46:10;;;;;;;43.03;40.50;;;;;;;3.57;100.00;100972.61;1844209;78;26217;-75
2022/01/05 03:48:40;;;;;;;44.20;40.93;;;;;;;3.51;100.00;100969.42;1844213;78;26284;-75
2022/01/05 03:51:11;;;;;;;42.67;39.80;;;;;;;3.56;100.00;100980.54;1844191;78;26225;-74
2022/01/05 03:53:41;;;;;;;42.90;40.40;;;;;;;3.60;100.00;100962.52;1844093;78;26282;-74
2022/01/05 03:56:12;;;;;;;42.77;40.07;;;;;;;3.59;100.00;100970.48;1844077;78;26213;-75
2022/01/05 03:58:42;;;;;;;43.73;40.90;;;;;;;3.54;100.00;100958.83;1844177;78;26338;-73
2022/01/05 04:01:13;;;;;;;42.47;39.73;;;;;;;3.58;100.00;100973.76;1844195;78;26213;-75
2022/01/05 04:03:43;;;;;;;41.33;38.73;;;;;;;3.62;100.00;100973.58;1844273;78;26723;-75
2022/01/05 04:06:14;;;;;;;42.40;39.60;;;;;;;3.66;100.00;100973.41;1844083;78;26664;-73
2022/01/05 04:08:44;;;;;;;41.67;39.00;;;;;;;3.68;100.00;100975.36;1844122;78;26257;-74
2022/01/05 04:11:15;;;;;;;42.30;39.70;;;;;;;3.72;100.00;100979.03;1844132;78;26347;-74
2022/01/05 04:13:45;;;;;;;43.50;40.80;;;;;;;3.64;100.00;100976.91;1844159;78;26342;-74
2022/01/05 04:16:15;;;;;;;44.63;41.63;;;;;;;3.59;100.00;100982.27;1844263;78;26241;-75
2022/01/05 04:18:45;;;;;;;46.03;43.13;;;;;;;3.56;100.00;100990.99;1844349;78;26286;-76
2022/01/05 04:21:15;;;;;;;47.00;44.00;;;;;;;3.56;100.00;100988.78;1844172;78;26213;-76
2022/01/05 04:23:46;;;;;;;45.90;43.23;;;;;;;3.58;100.00;100999.84;1844081;78;26209;-74
2022/01/05 04:26:16;;;;;;;47.87;44.67;;;;;;;3.56;100.00;101000.60;1843563;76;26265;-75
2022/01/05 04:28:46;;;;;;;46.07;43.20;;;;;;;3.46;100.00;101004.48;1843142;77;26346;-75
2022/01/05 04:31:16;;;;;;;45.17;42.30;;;;;;;3.49;100.00;101012.23;1843187;77;26212;-74
2022/01/05 04:33:46;;;;;;;46.87;43.70;;;;;;;3.51;100.00;101001.84;1843088;77;26709;-75
2022/01/05 04:36:17;;;;;;;46.17;43.20;;;;;;;3.46;100.00;100998.99;1843218;78;26729;-75
2022/01/05 04:38:47;;;;;;;45.77;42.97;;;;;;;3.49;100.00;101002.63;1843060;77;26224;-74
2022/01/05 04:41:17;;;;;;;44.23;41.53;;;;;;;3.46;100.00;101000.36;1842854;77;26303;-74
2022/01/05 04:43:48;;;;;;;45.17;42.10;;;;;;;3.48;100.00;101012.47;1843122;77;26275;-72
2022/01/05 04:46:18;;;;;;;44.13;41.53;;;;;;;3.56;100.00;101007.47;1843821;77;26233;-75
2022/01/05 04:48:48;;;;;;;46.70;43.77;;;;;;;3.53;100.00;101013.44;1843297;78;26267;-75
2022/01/05 04:51:18;;;;;;;43.57;40.43;;;;;;;3.51;100.00;101018.84;1843169;78;26238;-73
2022/01/05 04:53:49;;;;;;;44.90;42.10;;;;;;;3.51;100.00;101014.20;1843296;77;26296;-73
2022/01/05 04:56:19;;;;;;;46.37;43.43;;;;;;;3.50;100.00;101026.28;1843199;77;26717;-75
2022/01/05 04:58:49;;;;;;;46.93;43.93;;;;;;;3.50;100.00;101024.91;1843263;77;26397;-75
2022/01/05 05:04:33;;;;;;;46.60;43.70;;;;;;;3.63;100.00;101036.22;2006430;71;32824;-75
2022/01/05 05:10:17;;;;;;;47.37;44.30;;;;;;;3.53;100.00;101038.16;2009686;71;32820;-76
2022/01/05 05:16:02;;;;;;;47.13;44.07;;;;;;;3.50;100.00;101055.11;1995207;71;32838;-76
2022/01/05 05:21:48;;;;;;;46.40;43.47;;;;;;;3.39;100.00;101057.27;2011100;71;32942;-74
2022/01/05 05:27:32;;;;;;;45.90;43.00;;;;;;;3.49;100.00;101082.80;1970386;71;32959;-75
2022/01/05 05:33:16;;;;;;;46.87;43.83;;;;;;;3.45;100.00;101072.81;2002680;70;32835;-75
2022/01/05 05:39:00;;;;;;;45.80;42.83;;;;;;;3.51;100.00;101070.49;2011436;71;33446;-74
2022/01/05 05:44:44;;;;;;;47.00;43.80;;;;;;;3.56;100.00;101073.38;1998997;71;32857;-76
2022/01/05 05:50:29;;;;;;;47.83;44.70;;;;;;;3.50;100.00;101074.33;1998627;71;33348;-75
2022/01/05 05:56:13;;;;;;;45.93;42.93;;;;;;;3.59;100.00;101078.96;1997023;71;33326;-75
2022/01/05 06:01:57;;;;;;;47.10;43.83;;;;;;;3.59;100.00;101092.70;2000789;71;32851;-76
2022/01/05 06:07:42;;;;;;;44.73;41.83;;;;;;;3.70;100.00;101092.41;2016817;71;33333;-75
2022/01/05 06:13:26;;;;;;;48.07;44.83;;;;;;;3.77;100.00;101112.38;2002317;71;32930;-73
2022/01/05 06:19:10;;;;;;;44.50;41.63;;;;;;;3.76;100.00;101119.80;2005640;71;32910;-74
2022/01/05 06:24:56;;;;;;;43.77;40.73;;;;;;;3.73;100.00;101116.66;2018456;71;32906;-74
2022/01/05 06:30:41;;;;;;;44.03;41.30;;;;;;;3.72;100.00;101125.47;2005711;71;33447;-74
2022/01/05 06:36:28;;;;;;;42.80;40.00;;;;;;;3.91;100.00;101128.44;1991203;71;32888;-80
2022/01/05 06:42:13;;;;;;;44.13;41.23;;;;;;;3.74;100.00;101131.55;1998693;71;33388;-75
2022/01/05 06:47:58;;;;;;;46.37;43.37;;;;;;;3.76;100.00;101136.82;2016624;71;32851;-76
2022/01/05 06:53:42;;;;;;;45.73;42.83;;;;;;;3.83;100.00;101140.30;2007664;71;32844;-76
2022/01/05 06:59:26;;;;;;;45.53;42.47;;;;;;;3.81;100.00;101148.77;2013028;70;33377;-74
2022/01/05 07:05:12;;;;;;;43.47;40.53;;;;;;;3.83;100.00;101161.75;1997037;71;32843;-76
2022/01/05 07:10:56;;;;;;;42.90;40.37;;;;;;;3.87;100.00;101175.32;2006240;71;32792;-76
2022/01/05 07:16:40;;;;;;;43.37;40.40;;;;;;;3.86;100.00;101191.50;1922820;73;33115;-74
2022/01/05 07:22:24;;;;;;;45.33;42.20;;;;;;;3.85;100.00;101193.13;1998389;71;33304;-77
2022/01/05 07:28:10;;;;;;;44.43;41.40;;;;;;;3.80;100.00;101199.84;2013564;71;32775;-75
2022/01/05 07:33:55;;;;;;;46.53;43.43;;;;;;;3.71;100.00;101206.20;2008095;71;32892;-75
2022/01/05 07:39:39;;;;;;;46.73;43.73;;;;;;;3.68;100.00;101217.63;2009633;71;33400;-75
2022/01/05 07:45:25;;;;;;;46.90;43.70;;;;;;;3.69;100.00;101219.31;1991023;71;32788;-75
2022/01/05 07:51:09;;;;;;;47.63;44.50;;;;;;;3.63;100.00;101228.49;2009401;71;33383;-77
2022/01/05 07:56:53;;;;;;;48.70;45.30;;;;;;;3.65;100.00;101246.41;2008302;71;32832;-73
2022/01/05 08:02:37;;;;;;;49.23;45.57;;;;;;;3.68;100.00;101250.59;2015077;71;32927;-84
2022/01/05 08:08:24;;;;;;;44.50;41.60;;;;;;;3.73;100.00;101268.59;1921502;73;32941;-77
2022/01/05 08:14:11;;;;;;;45.60;42.53;;;;;;;3.70;100.00;101276.47;2014901;71;32907;-84
2022/01/05 08:19:55;;;;;;;45.50;42.40;;;;;;;3.70;100.00;101292.95;2018346;71;32920;-75
2022/01/05 08:25:41;;;;;;;46.10;43.23;;;;;;;3.73;100.00;101294.70;2008085;71;33280;-75
2022/01/05 08:31:28;;;;;;;45.40;42.40;;;;;;;3.78;100.00;101290.73;2013582;71;33472;-76
2022/01/05 08:37:15;;;;;;;44.53;41.83;;;;;;;3.84;100.00;101298.08;2007976;71;33285;-74
2022/01/05 08:43:03;;;;;;;45.90;42.70;;;;;;;3.77;100.00;101307.44;2003864;71;32963;-73
2022/01/05 08:48:47;;;;;;;47.07;43.80;;;;;;;3.83;100.00;101325.23;2014977;71;32858;-73
2022/01/05 08:54:31;;;;;;;45.03;42.27;;;;;;;3.90;100.00;101341.63;2009317;71;32962;-74
2022/01/05 09:00:20;;;;;;;43.93;41.17;;;;;;;3.91;100.00;101349.66;2018713;71;32888;-76
2022/01/05 09:06:06;;;;;;;45.90;42.57;;;;;;;3.95;100.00;101356.91;1991516;71;32930;-74
2022/01/05 09:11:53;;;;;;;45.03;42.23;;;;;;;4.07;100.00;101366.06;2016780;71;32907;-74
2022/01/05 09:17:38;;;;;;;42.90;40.30;;;;;;;4.07;100.00;101371.02;2013396;71;32839;-74
2022/01/05 09:23:24;;;;;;;43.33;40.37;;;;;;;4.24;100.00;101380.02;2015062;71;33428;-74
2022/01/05 09:29:10;;;;;;;45.80;42.50;;;;;;;4.16;100.00;101381.17;2015063;71;32950;-73
2022/01/05 09:34:55;;;;;;;40.63;37.87;;;;;;;4.28;100.00;101388.14;2016738;71;32842;-75
2022/01/05 09:46:52;;;;;;;41.43;38.57;;;;;;;4.49;100.00;101395.91;2009437;71;32846;-74
2022/01/05 09:52:40;;;;;;;39.50;36.80;;;;;;;4.69;100.00;101395.62;2011169;71;32958;-76
2022/01/05 09:58:26;;;;;;;39.20;36.47;;;;;;;4.72;100.00;101417.16;2013575;71;33244;-73
2022/01/05 10:04:13;;;;;;;38.10;35.33;;;;;;;4.87;100.00;101426.70;2016662;71;32826;-74
2022/01/05 10:09:57;;;;;;;38.07;35.27;;;;;;;4.96;100.00;101434.90;2002291;71;33470;-74
2022/01/05 10:15:41;;;;;;;37.47;35.03;;;;;;;4.89;100.00;101440.20;2004030;71;32919;-75
2022/01/05 10:21:35;;;;;;;39.97;37.47;;;;;;;5.13;100.00;101450.78;2014938;70;33251;-73
2022/01/05 10:27:23;;;;;;;37.13;34.43;;;;;;;5.16;100.00;101452.52;1976857;71;32928;-73
2022/01/05 10:33:13;;;;;;;36.63;34.13;;;;;;;5.26;100.00;101456.09;2008238;71;32850;-73
2022/01/05 10:39:10;;;;;;;37.93;35.20;;;;;;;5.36;100.00;101462.69;2015091;71;32866;-74
2022/01/05 10:44:55;;;;;;;36.63;34.17;;;;;;;5.45;100.00;101476.42;2016602;70;32948;-75
2022/01/05 10:50:41;;;;;;;36.60;34.00;;;;;;;5.53;100.00;101473.86;2018466;71;33328;-73
2022/01/05 10:56:30;;;;;;;39.23;36.37;;;;;;;5.55;100.00;101484.12;2002421;71;32758;-73
2022/01/05 11:02:26;;;;;;;38.73;36.10;;;;;;;5.63;100.00;101489.28;2018418;71;32795;-74
2022/01/05 11:08:12;;;;;;;37.80;35.10;;;;;;;5.71;100.00;101480.66;2018530;71;32842;-81
2022/01/05 11:14:00;;;;;;;38.73;36.07;;;;;;;5.89;100.00;101490.78;2015011;71;33313;-78
2022/01/05 11:19:45;;;;;;;37.57;34.67;;;;;;;5.93;100.00;101492.83;1997239;71;32736;-78
2022/01/05 11:25:34;;;;;;;38.50;36.00;;;;;;;6.07;100.00;101492.06;2004656;71;32824;-79
2022/01/05 11:31:21;;;;;;;35.77;33.57;;;;;;;6.17;100.00;101499.70;2018802;71;32860;-76
2022/01/05 11:37:09;;;;;;;35.70;32.93;;;;;;;6.20;100.00;101498.71;2011823;71;33218;-76
2022/01/05 11:43:02;;;;;;;34.63;32.33;;;;;;;6.25;100.00;101497.42;1997102;71;32831;-76
2022/01/05 11:49:03;;;;;;;31.20;29.10;;;;;;;6.35;100.00;101500.42;2017209;71;33306;-80
2022/01/05 11:55:05;;;;;;;33.57;31.10;;;;;;;6.42;100.00;101498.09;2004474;71;32879;-77
2022/01/05 12:00:52;;;;;;;31.77;29.77;;;;;;;6.45;100.00;101499.83;2003769;71;32877;-74
2022/01/05 12:07:35;;;;;;;32.93;30.70;;;;;;;6.53;100.00;101488.41;2000775;71;33433;-79
2022/01/05 12:13:24;;;;;;;30.87;28.80;;;;;;;6.55;100.00;101491.75;2007985;71;32810;-79
2022/01/05 12:19:15;;;;;;;30.03;28.23;;;;;;;6.66;100.00;101500.56;2010257;71;32883;-77
2022/01/05 12:25:16;;;;;;;31.20;29.00;;;;;;;6.67;100.00;101509.15;2011216;71;32801;-76
2022/01/05 12:31:56;;;;;;;32.07;29.83;;;;;;;6.70;100.00;101520.23;2015070;71;32863;-77
2022/01/05 12:38:10;;;;;;;30.87;28.77;;;;;;;6.75;100.00;101521.73;2008510;71;32803;-77
2022/01/05 12:43:56;;;;;;;36.87;34.10;;;;;;;6.71;100.00;101521.37;2002879;71;32780;-76
2022/01/05 12:50:07;;;;;;;31.83;29.70;;;;;;;6.78;100.00;101517.09;2005966;71;32814;-77
2022/01/05 12:55:54;;;;;;;30.70;28.50;;;;;;;6.81;100.00;101524.34;2000324;71;32855;-77
2022/01/05 13:01:39;;;;;;;32.70;30.20;;;;;;;6.79;100.00;101517.39;2016970;71;33427;-77
2022/01/05 13:07:26;;;;;;;33.10;31.03;;;;;;;6.98;100.00;101521.64;1991769;71;32801;-77
2022/01/05 13:13:11;;;;;;;31.23;29.17;;;;;;;6.97;100.00;101524.13;2016857;71;32811;-79
2022/01/05 13:18:55;;;;;;;29.43;27.53;;;;;;;7.00;100.00;101529.70;1991801;71;32831;-78
2022/01/05 13:24:46;;;;;;;31.97;29.57;;;;;;;7.03;100.00;101528.66;1998568;71;33418;-74
2022/01/05 13:30:34;;;;;;;30.87;28.87;;;;;;;7.12;100.00;101530.49;2011083;71;33336;-77
2022/01/05 13:36:19;;;;;;;28.53;26.73;;;;;;;7.18;100.00;101524.84;2016789;71;32808;-74
2022/01/05 13:42:09;;;;;;;28.60;27.00;;;;;;;7.39;100.00;101532.97;2009477;71;32931;-79
2022/01/05 13:48:00;;;;;;;29.07;26.80;;;;;;;7.42;100.00;101545.45;2006204;71;33307;-75
2022/01/05 13:53:49;;;;;;;27.60;26.00;;;;;;;7.27;100.00;101541.86;2011230;71;32901;-80
2022/01/05 13:59:43;;;;;;;27.10;25.70;;;;;;;7.10;100.00;101538.20;2011745;71;32760;-75
2022/01/05 14:05:29;;;;;;;29.23;27.33;;;;;;;7.10;100.00;101548.68;2013475;71;33321;-80
2022/01/05 14:11:28;;;;;;;28.60;26.90;;;;;;;6.95;100.00;101558.05;2013891;71;33303;-79
2022/01/05 14:17:15;;;;;;;28.47;26.57;;;;;;;6.98;100.00;101563.08;1991937;71;33221;-78
2022/01/05 14:23:02;;;;;;;29.27;27.33;;;;;;;6.84;100.00;101542.36;2009202;71;32841;-78
2022/01/05 14:28:59;;;;;;;27.40;25.77;;;;;;;7.05;100.00;101569.32;2008166;71;32803;-80
2022/01/05 14:34:53;;;;;;;28.90;27.33;;;;;;;7.11;100.00;101579.37;2018580;71;32853;-76
2022/01/05 14:40:35;;;;;;;28.83;27.00;;;;;;;7.05;100.00;101585.89;2006349;71;33280;-76
2022/01/05 14:46:19;;;;;;;26.30;24.83;;;;;;;7.12;100.00;101588.51;2016425;71;32830;-77
2022/01/05 14:52:07;;;;;;;26.53;25.03;;;;;;;7.10;100.00;101605.31;2010030;71;33228;-78
2022/01/05 14:57:52;;;;;;;26.23;24.63;;;;;;;7.11;100.00;101618.05;2016535;71;32889;-77
2022/01/05 15:03:36;;;;;;;27.37;25.37;;;;;;;7.08;100.00;101617.70;2000726;71;32811;-77
2022/01/05 15:09:22;;;;;;;26.40;24.87;;;;;;;7.05;100.00;101619.58;2000727;71;32783;-78
2022/01/05 15:15:10;;;;;;;27.27;25.50;;;;;;;6.96;100.00;101630.16;2014946;71;32823;-78
2022/01/05 15:20:56;;;;;;;30.00;27.90;;;;;;;7.01;100.00;101640.48;1991645;71;32780;-78
2022/01/05 15:26:41;;;;;;;27.17;25.50;;;;;;;6.95;100.00;101653.87;2004413;71;32872;-80
2022/01/05 15:32:26;;;;;;;29.30;27.30;;;;;;;6.85;100.00;101660.84;2015100;71;32907;-78
2022/01/05 15:38:13;;;;;;;29.00;27.00;;;;;;;6.83;100.00;101675.98;2006231;70;32741;-79
2022/01/05 15:43:57;;;;;;;29.20;27.50;;;;;;;6.78;100.00;101678.62;2002436;71;32821;-74
2022/01/05 15:49:42;;;;;;;31.10;29.30;;;;;;;6.74;100.00;101686.55;2008383;71;32903;-79
2022/01/05 15:55:33;;;;;;;32.33;29.83;;;;;;;6.65;100.00;101679.69;2016536;71;33424;-76
2022/01/05 16:01:27;;;;;;;33.47;31.47;;;;;;;6.54;100.00;101694.87;2004052;71;32886;-78
2022/01/05 16:07:07;;;;;;;36.73;34.53;;;;;;;6.38;100.00;101695.00;2013202;71;32912;-79
2022/01/05 16:12:53;;;;;;;37.90;35.33;;;;;;;6.30;100.00;101711.37;2016819;71;32820;-77
2022/01/05 16:18:37;;;;;;;39.07;36.83;;;;;;;6.14;100.00;101713.42;2016926;71;32824;-75
2022/01/05 16:24:23;;;;;;;39.23;36.70;;;;;;;5.93;100.00;101715.33;2012016;70;33259;-77
2022/01/05 16:30:12;;;;;;;44.40;41.23;;;;;;;5.72;100.00;101726.30;2008116;71;32829;-77
2022/01/05 16:35:58;;;;;;;52.17;48.27;;;;;;;5.64;100.00;101743.16;2001088;71;33390;-81
2022/01/05 16:41:45;;;;;;;69.93;62.77;;;;;;;5.58;100.00;101763.34;2009501;70;32821;-77
2022/01/05 16:47:31;;;;;;;56.83;52.50;;;;;;;5.49;100.00;101766.95;2003056;71;32910;-76
2022/01/05 16:53:17;;;;;;;49.80;46.70;;;;;;;5.41;100.00;101769.16;1991772;71;32767;-77
2022/01/05 17:05:03;;;;;;;51.53;47.90;;;;;;;5.16;100.00;101773.88;2011388;71;32827;-79
2022/01/05 17:10:48;;;;;;;51.63;48.17;;;;;;;4.87;100.00;101791.95;2018586;71;32805;-78
2022/01/05 17:16:32;;;;;;;53.23;49.80;;;;;;;4.79;100.00;101797.17;1996851;71;33390;-76
2022/01/05 17:22:16;;;;;;;48.90;45.30;;;;;;;5.15;100.00;101810.22;2004139;70;32842;-75
2022/01/05 17:28:01;;;;;;;46.90;43.60;;;;;;;5.11;100.00;101820.53;2018637;71;32868;-77
2022/01/05 17:33:46;;;;;;;45.77;42.67;;;;;;;5.02;100.00;101835.96;1995531;71;33313;-76
2022/01/05 17:39:33;;;;;;;43.27;40.47;;;;;;;5.14;100.00;101831.93;1999327;71;33276;-80
2022/01/05 17:45:20;;;;;;;43.60;40.83;;;;;;;5.16;100.00;101831.19;2006111;71;33307;-76
2022/01/05 17:51:04;;;;;;;43.50;40.30;;;;;;;5.33;100.00;101845.23;2000084;71;32905;-77
2022/01/05 17:56:49;;;;;;;43.30;40.37;;;;;;;5.37;100.00;101851.44;2013137;71;32948;-75
2022/01/05 18:02:34;;;;;;;42.80;39.73;;;;;;;5.33;100.00;101857.09;1928540;70;103251;-77
2022/01/05 18:08:21;;;;;;;42.83;39.70;;;;;;;5.32;100.00;101871.92;1994982;71;32840;-77
2022/01/05 18:14:05;;;;;;;42.57;39.53;;;;;;;5.26;100.00;101878.89;2009625;71;32911;-76
2022/01/05 18:19:57;;;;;;;45.53;42.73;;;;;;;5.19;100.00;101870.66;2013775;71;32915;-77
2022/01/05 18:25:41;;;;;;;44.87;41.80;;;;;;;5.15;100.00;101892.84;2013195;71;32854;-72
2022/01/05 18:31:24;;;;;;;48.63;45.23;;;;;;;4.38;100.00;101893.12;1994800;71;33302;-79
2022/01/05 18:37:10;;;;;;;53.57;49.50;;;;;;;3.91;100.00;101914.98;2013077;71;32884;-78
2022/01/05 18:42:54;;;;;;;48.70;45.30;;;;;;;3.51;100.00;101926.03;2011645;71;32872;-80
2022/01/05 18:48:38;;;;;;;48.63;45.23;;;;;;;3.51;100.00;101937.53;2002483;71;32827;-78
2022/01/05 18:54:23;;;;;;;49.43;45.60;;;;;;;3.80;100.00;101952.75;2011245;71;33010;-78
2022/01/05 19:00:10;;;;;;;50.30;46.70;;;;;;;3.55;100.00;101954.76;2011072;71;32898;-72
2022/01/05 19:05:54;;;;;;;53.80;49.70;;;;;;;3.54;100.00;101974.22;2004035;71;32822;-70
2022/01/05 19:11:38;;;;;;;50.00;46.00;;;;;;;4.03;100.00;101988.84;2018781;71;33407;-71
2022/01/05 19:17:22;;;;;;;51.67;47.80;;;;;;;4.07;100.00;101978.58;2008081;71;32926;-76
2022/01/05 19:23:07;;;;;;;49.40;45.77;;;;;;;4.18;100.00;102000.46;2014689;71;33097;-70
2022/01/05 19:28:51;;;;;;;51.83;48.00;;;;;;;4.22;100.00;101994.84;2015146;71;33328;-70
2022/01/05 19:34:36;;;;;;;50.93;46.93;;;;;;;4.13;100.00;102005.23;2007813;71;33009;-78
2022/01/05 19:40:21;;;;;;;49.43;45.90;;;;;;;4.34;100.00;102007.39;2015245;70;32823;-76
2022/01/05 19:46:05;;;;;;;48.90;45.47;;;;;;;4.28;100.00;102003.59;2011146;71;32826;-70
2022/01/05 19:51:54;;;;;;;51.20;47.40;;;;;;;4.31;100.00;102008.69;2013473;71;33358;-73
2022/01/05 19:57:35;;;;;;;50.77;47.27;;;;;;;4.30;100.00;102003.39;2007950;71;32764;-74
2022/01/05 20:03:21;;;;;;;48.57;45.17;;;;;;;4.31;100.00;102000.95;2002462;71;32776;-73
2022/01/05 20:09:05;;;;;;;47.63;43.93;;;;;;;4.23;100.00;102008.07;2017033;71;32897;-76
2022/01/05 20:14:51;;;;;;;50.10;46.30;;;;;;;4.21;100.00;102017.05;2006627;71;32785;-75
2022/01/05 20:20:36;;;;;;;48.23;45.03;;;;;;;4.20;100.00;102031.33;2004421;71;33430;-76
2022/01/05 20:26:23;;;;;;;49.47;46.07;;;;;;;4.19;100.00;102032.41;2000801;71;32871;-79
2022/01/05 20:32:14;;;;;;;46.27;43.03;;;;;;;3.49;100.00;101933.65;1937816;69;104653;-76
2022/01/05 20:38:00;;;;;;;47.60;44.20;;;;;;;4.09;100.00;102041.09;2007513;71;32831;-74
2022/01/05 20:43:45;;;;;;;46.43;43.10;;;;;;;4.12;100.00;102059.05;2014690;71;32909;-76
2022/01/05 20:49:29;;;;;;;46.97;43.47;;;;;;;4.15;100.00;102055.05;2008033;71;32782;-76
2022/01/05 20:55:14;;;;;;;49.17;45.57;;;;;;;4.14;100.00;102056.95;2002582;71;32777;-79
2022/01/05 21:00:59;;;;;;;49.10;45.57;;;;;;;3.56;100.00;102073.20;2016739;71;33373;-75
2022/01/05 21:06:43;;;;;;;47.07;43.90;;;;;;;3.77;100.00;102061.17;2000783;71;32826;-77
2022/01/05 21:12:27;;;;;;;47.70;44.47;;;;;;;3.86;100.00;102065.94;2006237;71;33256;-72
2022/01/05 21:18:14;;;;;;;46.50;42.90;;;;;;;3.84;100.00;102073.03;2014979;71;33351;-74
2022/01/05 21:23:58;;;;;;;49.40;45.80;;;;;;;3.72;100.00;102067.01;2007983;71;32899;-75
2022/01/05 21:29:43;;;;;;;50.13;46.63;;;;;;;3.79;100.00;102081.06;2011248;71;33438;-76
2022/01/05 21:35:29;;;;;;;48.00;44.37;;;;;;;3.37;100.00;102093.78;2009396;71;32932;-69
2022/01/05 21:41:15;;;;;;;49.40;46.10;;;;;;;3.26;100.00;102103.98;2014718;71;32830;-73
2022/01/05 21:46:59;;;;;;;50.50;46.60;;;;;;;2.64;100.00;102107.73;2013228;71;33337;-70
2022/01/05 21:52:43;;;;;;;47.77;44.37;;;;;;;2.41;100.00;102118.13;2013084;71;32836;-69
2022/01/05 21:58:28;;;;;;;49.50;45.70;;;;;;;2.27;100.00;102118.55;2000653;71;32831;-73
2022/01/05 22:04:12;;;;;;;47.97;44.40;;;;;;;2.38;100.00;102128.13;2014919;71;32910;-69
2022/01/05 22:09:57;;;;;;;48.90;45.47;;;;;;;2.81;100.00;102128.30;2006305;71;32890;-76
2022/01/05 22:15:41;;;;;;;48.13;44.53;;;;;;;2.82;100.00;102127.78;2011642;71;33300;-78
2022/01/05 22:21:25;;;;;;;54.03;50.33;;;;;;;2.68;100.00;102132.34;2011322;71;32853;-78
2022/01/05 22:27:09;;;;;;;54.30;50.67;;;;;;;2.31;100.00;102133.55;2000712;71;32805;-76
2022/01/05 22:32:53;;;;;;;55.60;51.70;;;;;;;2.63;100.00;102137.58;2009340;71;32819;-77
2022/01/05 22:38:39;;;;;;;52.30;48.33;;;;;;;2.82;100.00;102142.35;2006467;71;32904;-78
2022/01/05 22:44:26;;;;;;;57.33;53.23;;;;;;;2.40;100.00;102136.98;1991913;71;32864;-79
2022/01/05 22:50:12;;;;;;;59.13;55.23;;;;;;;2.35;100.00;102133.50;2013019;71;32867;-71
2022/01/05 22:55:56;;;;;;;58.57;54.77;;;;;;;2.13;100.00;102145.03;2000563;71;33434;-77
2022/01/05 23:01:41;;;;;;;64.70;59.97;;;;;;;1.99;100.00;102164.28;1998562;71;28436;-77
2022/01/05 23:07:25;;;;;;;61.83;57.33;;;;;;;1.81;100.00;102177.92;1996937;71;32864;-73